Terminal Aerodrome Forecast
Issued by NWS

Home | Current Version | Previous Version | Text Only | Print | Product List | Glossary On
Versions: 1 2 3 4 5 6 7 8 9 10 11 12 13 14 15
000
FTUS41 KPBZ 260500 RRA
TAFBVI
TAF
KBVI 260541Z 2606/2706 04005KT 1SM -SN OVC004
     FM261000 05007KT 2SM -SN BR OVC007
     FM262100 35008KT 3SM -SHSN OVC010
      AMD NOT SKED=

USA.gov is the U.S. government's official web portal to all federal, state and local government web resources and services.